Time;durP1;ratioP1;P1;durP2;ratioP2;P2;SDS_P1;SDS_P2;PMS_P1;PMS_P2;Temp;Humidity;BMP_temperature;BMP_pressure;BME280_temperature;BME280_humidity;BME280_pressure;Samples;Min_cycle;Max_cycle;Signal;HPM_P1;HPM_P2
2022/01/21 00:01:26;;;;;;;38.83;24.75;;;;;;;2.98;66.42;101738.00;5051067;28;20052;-60
2022/01/21 00:03:54;;;;;;;37.00;26.77;;;;;;;2.92;66.41;101732.00;5050338;28;20071;-59
2022/01/21 00:06:21;;;;;;;40.97;27.75;;;;;;;2.88;66.32;101732.91;5051000;28;20045;-61
2022/01/21 00:08:51;;;;;;;42.03;30.35;;;;;;;2.91;66.01;101732.84;5046209;28;20501;-61
2022/01/21 00:11:19;;;;;;;48.65;31.20;;;;;;;2.95;65.87;101723.31;5037733;28;20584;-59
2022/01/21 00:13:46;;;;;;;43.90;30.90;;;;;;;2.92;65.61;101725.94;5047656;28;20041;-64
2022/01/21 00:16:19;;;;;;;39.95;29.00;;;;;;;2.87;65.81;101726.00;5050851;28;20481;-60
2022/01/21 00:18:57;;;;;;;43.35;28.63;;;;;;;2.88;65.77;101727.72;5037644;28;20502;-59
2022/01/21 00:32:28;;;;;;;39.38;28.00;;;;;;;2.77;65.66;101743.34;5050096;28;20471;-63
2022/01/21 00:34:55;;;;;;;38.38;28.23;;;;;;;2.82;65.56;101739.84;5050149;28;20477;-60
2022/01/21 00:37:22;;;;;;;40.58;28.85;;;;;;;2.82;65.54;101740.72;5050163;28;20052;-60
2022/01/21 00:39:54;;;;;;;38.35;28.08;;;;;;;2.81;65.65;101738.16;5049821;28;20136;-60
2022/01/21 00:44:51;;;;;;;37.03;28.33;;;;;;;2.72;65.74;101728.72;5043632;28;21829;-71
2022/01/21 00:47:18;;;;;;;43.45;29.58;;;;;;;2.72;65.74;101721.78;5049636;28;20053;-60
2022/01/21 00:49:45;;;;;;;48.33;32.78;;;;;;;2.75;65.37;101724.34;5049791;28;20045;-60
2022/01/21 00:52:11;;;;;;;50.85;33.08;;;;;;;2.78;65.47;101721.75;5048846;28;20048;-60
2022/01/21 00:54:40;;;;;;;51.17;34.20;;;;;;;2.78;65.53;101724.34;5049658;28;20045;-62
2022/01/21 00:57:07;;;;;;;63.33;37.63;;;;;;;2.82;65.68;101730.34;5016026;28;20235;-60
2022/01/21 00:59:33;;;;;;;65.45;38.67;;;;;;;2.84;65.68;101732.94;5041824;28;20498;-60
2022/01/21 01:02:00;;;;;;;72.80;40.95;;;;;;;2.87;65.58;101727.69;5033049;28;20486;-61
2022/01/21 01:04:27;;;;;;;69.43;39.38;;;;;;;2.89;65.87;101726.81;5029653;28;20049;-60
2022/01/21 01:06:54;;;;;;;58.35;37.47;;;;;;;2.82;66.09;101722.59;5029545;28;20056;-60
2022/01/21 01:09:21;;;;;;;62.22;36.40;;;;;;;2.78;66.10;101713.97;5029524;28;20041;-61
2022/01/21 01:22:26;;;;;;;56.92;35.95;;;;;;;2.74;66.12;101735.59;5049484;28;20056;-60
2022/01/21 01:27:42;;;;;;;60.58;36.53;;;;;;;2.71;65.97;101722.66;5049187;28;20110;-60
2022/01/21 01:30:18;;;;;;;62.22;36.13;;;;;;;2.73;65.98;101725.22;5049300;28;20049;-62
2022/01/21 01:32:45;;;;;;;;;;;;;;;2.69;65.92;101718.34;5048958;28;20053;-60
2022/01/21 01:35:14;;;;;;;64.90;37.30;;;;;;;2.68;66.28;101716.63;5034604;28;19928;-60
2022/01/21 01:50:53;;;;;;;;;;;;;;;2.58;66.17;101726.22;5027224;28;20080;-60
2022/01/21 01:53:28;;;;;;;68.88;37.88;;;;;;;2.61;66.13;101723.59;5028898;28;20552;-59
2022/01/21 01:55:56;;;;;;;63.50;38.13;;;;;;;2.63;66.08;101728.75;5028525;28;20161;-61
2022/01/21 01:58:24;;;;;;;67.75;37.92;;;;;;;2.60;66.18;101733.13;5028963;28;20049;-60
2022/01/21 02:00:51;;;;;;;64.38;37.17;;;;;;;2.56;66.05;101727.97;5028468;28;20095;-62
2022/01/21 02:03:18;;;;;;;65.82;38.33;;;;;;;2.54;66.05;101748.72;5027854;28;20401;-60
2022/01/21 02:05:45;;;;;;;70.00;38.63;;;;;;;2.48;66.15;101742.72;5028021;28;20047;-67
2022/01/21 02:08:11;;;;;;;68.13;39.35;;;;;;;2.49;65.92;101739.22;5028657;28;20053;-60
2022/01/21 02:10:40;;;;;;;71.20;38.33;;;;;;;2.45;65.86;101733.19;5028369;28;20441;-60
2022/01/21 02:13:27;;;;;;;68.57;37.28;;;;;;;2.45;65.87;101734.09;5028361;28;20045;-61
2022/01/21 02:16:08;;;;;;;69.10;40.05;;;;;;;2.43;65.71;101729.78;5028310;28;20051;-60
2022/01/21 02:21:30;;;;;;;74.38;39.83;;;;;;;2.40;65.78;101745.31;5035245;28;20122;-60
2022/01/21 02:24:13;;;;;;;73.32;39.13;;;;;;;2.41;65.74;101739.28;5042690;28;20045;-60
2022/01/21 02:26:41;;;;;;;71.88;40.50;;;;;;;2.36;65.50;101728.97;5023296;28;20041;-60
2022/01/21 02:29:10;;;;;;;72.72;38.65;;;;;;;2.37;65.68;101725.47;5048310;28;20179;-60
2022/01/21 02:31:38;;;;;;;69.32;40.05;;;;;;;2.36;65.69;101736.75;5020245;28;20524;-61
2022/01/21 02:34:06;;;;;;;69.47;38.28;;;;;;;2.35;65.81;101727.25;5046883;28;20091;-59
2022/01/21 02:36:33;;;;;;;74.07;39.33;;;;;;;2.36;65.71;101728.09;5045741;28;20566;-59
2022/01/21 02:39:00;;;;;;;69.25;38.05;;;;;;;2.35;65.70;101739.31;5048525;28;20485;-63
2022/01/21 02:41:27;;;;;;;70.57;39.65;;;;;;;2.36;65.80;101739.34;5042850;28;20118;-59
2022/01/21 02:43:54;;;;;;;68.45;38.22;;;;;;;2.35;65.71;101741.91;5051349;28;20383;-59
2022/01/21 02:46:22;;;;;;;67.22;38.80;;;;;;;2.29;65.81;101737.63;5051276;28;20394;-59
2022/01/21 02:48:50;;;;;;;71.18;39.20;;;;;;;2.25;65.66;101741.13;5050803;28;20128;-59
2022/01/21 02:51:17;;;;;;;76.03;39.50;;;;;;;2.19;65.81;101739.41;5051296;28;20071;-59
2022/01/21 02:56:19;;;;;;;84.78;41.97;;;;;;;2.18;65.34;101734.25;5051436;28;20041;-59
2022/01/21 02:58:46;;;;;;;90.00;42.83;;;;;;;2.17;65.54;101735.13;5044125;28;20045;-59
2022/01/21 03:01:15;;;;;;;86.88;42.42;;;;;;;2.14;65.63;101741.16;5051365;28;20540;-62
2022/01/21 03:03:44;;;;;;;87.07;42.13;;;;;;;2.18;65.71;101748.03;5051063;28;20045;-59
2022/01/21 03:06:11;;;;;;;89.97;40.30;;;;;;;2.15;66.20;101737.72;5051700;28;20111;-58
2022/01/21 03:08:38;;;;;;;76.60;40.10;;;;;;;2.19;66.26;101742.00;5050893;28;20499;-60
2022/01/21 03:11:05;;;;;;;82.78;40.78;;;;;;;2.24;66.17;101749.75;5050943;28;20114;-62
2022/01/21 03:13:31;;;;;;;76.25;36.05;;;;;;;2.26;66.57;101746.28;5048684;28;20041;-61
2022/01/21 03:15:58;;;;;;;75.57;37.45;;;;;;;2.25;67.12;101747.16;5034610;28;20045;-59
2022/01/21 03:18:25;;;;;;;76.57;39.20;;;;;;;2.30;67.50;101747.13;5035025;28;20046;-59
2022/01/21 03:20:51;;;;;;;84.88;38.85;;;;;;;2.37;67.37;101741.03;5050442;28;20056;-59
2022/01/21 03:23:20;;;;;;;99.18;41.33;;;;;;;2.28;68.02;101741.09;5055055;28;20061;-59
2022/01/21 03:25:47;;;;;;;84.20;42.33;;;;;;;2.38;68.42;101750.53;5054956;28;20052;-59
2022/01/21 03:28:15;;;;;;;94.25;41.10;;;;;;;2.46;68.37;101750.47;5027274;28;20163;-59
2022/01/21 03:30:42;;;;;;;107.97;41.33;;;;;;;2.42;68.76;101752.22;5054846;28;20075;-59
2022/01/21 03:33:08;;;;;;;81.63;39.78;;;;;;;2.41;69.27;101750.53;5034094;28;20099;-63
2022/01/21 03:35:35;;;;;;;76.18;37.72;;;;;;;2.37;69.69;101748.78;5034778;28;20175;-60
2022/01/21 03:38:03;;;;;;;83.75;39.85;;;;;;;2.45;69.62;101751.34;5034334;28;20051;-61
2022/01/21 03:40:31;;;;;;;78.28;39.38;;;;;;;2.50;69.67;101767.75;5034753;28;20052;-59
2022/01/21 03:42:58;;;;;;;89.15;39.38;;;;;;;2.50;69.97;101756.50;5034228;28;20045;-59
2022/01/21 03:45:25;;;;;;;69.45;37.42;;;;;;;2.50;70.28;101753.91;5034537;28;20478;-59
2022/01/21 03:47:52;;;;;;;72.70;38.13;;;;;;;2.51;70.51;101753.03;5033271;28;20053;-62
2022/01/21 03:52:46;;;;;;;80.57;38.20;;;;;;;2.44;70.82;101758.25;5034251;28;20433;-59
2022/01/21 03:55:12;;;;;;;83.03;38.03;;;;;;;2.50;70.65;101765.16;5034276;28;20500;-59
2022/01/21 03:57:39;;;;;;;68.40;36.40;;;;;;;2.52;70.62;101760.81;5033977;28;20091;-62
2022/01/21 04:00:08;;;;;;;73.70;37.05;;;;;;;2.54;70.70;101763.38;5034294;28;20436;-59
2022/01/21 04:02:36;;;;;;;97.03;36.00;;;;;;;2.42;70.79;101760.00;5032500;28;20049;-59
2022/01/21 04:05:03;;;;;;;79.25;37.05;;;;;;;2.43;71.42;101764.31;5028449;28;20516;-60
2022/01/21 04:07:30;;;;;;;67.60;36.85;;;;;;;2.41;71.18;101767.78;5030715;28;20053;-59
2022/01/21 04:09:56;;;;;;;101.78;36.70;;;;;;;2.41;71.12;101773.84;5030371;28;20136;-60
2022/01/21 04:12:23;;;;;;;84.43;36.17;;;;;;;2.37;70.93;101772.09;5030354;28;20081;-59
2022/01/21 04:14:50;;;;;;;75.18;36.25;;;;;;;2.37;71.17;101772.09;5030613;28;20046;-62
2022/01/21 04:17:18;;;;;;;67.30;35.10;;;;;;;2.37;71.10;101774.69;5030681;28;20060;-59
2022/01/21 04:19:45;;;;;;;71.68;35.08;;;;;;;2.35;71.06;101783.34;5031660;28;20127;-60
2022/01/21 04:22:11;;;;;;;65.47;35.90;;;;;;;2.41;70.75;101786.78;5043172;28;20049;-59
2022/01/21 04:24:38;;;;;;;66.85;34.50;;;;;;;2.32;71.32;101785.97;5050332;28;20072;-59
2022/01/21 04:27:05;;;;;;;65.13;32.80;;;;;;;2.30;71.63;101785.97;5050347;28;20057;-59
2022/01/21 04:29:38;;;;;;;66.05;32.40;;;;;;;2.32;71.18;101796.31;5049240;28;20049;-59
2022/01/21 04:32:08;;;;;;;56.30;32.47;;;;;;;2.29;71.42;101792.88;5050322;28;20040;-59
2022/01/21 04:34:35;;;;;;;54.75;30.65;;;;;;;2.33;71.02;101793.72;5050105;28;20566;-67
2022/01/21 04:37:02;;;;;;;54.40;31.30;;;;;;;2.28;71.07;101785.97;5050233;28;20041;-59
2022/01/21 04:39:35;;;;;;;56.58;31.77;;;;;;;2.33;70.96;101806.69;5044424;28;20524;-62
2022/01/21 04:47:38;;;;;;;51.72;29.65;;;;;;;2.36;71.02;101816.16;5050110;28;20068;-59
2022/01/21 04:50:10;;;;;;;52.97;30.35;;;;;;;2.28;71.20;101823.97;5050115;28;20041;-59
2022/01/21 04:52:37;;;;;;;57.38;29.50;;;;;;;2.32;71.11;101815.31;5050119;28;20053;-61
2022/01/21 04:55:05;;;;;;;63.78;29.05;;;;;;;2.29;70.50;101823.09;5047826;28;20041;-59
2022/01/21 04:57:32;;;;;;;51.10;29.85;;;;;;;2.28;71.08;101826.56;5039415;28;20048;-60
2022/01/21 04:59:58;;;;;;;51.97;29.08;;;;;;;2.15;71.36;101827.50;5049797;28;20049;-60
2022/01/21 05:02:27;;;;;;;50.67;28.92;;;;;;;2.17;71.21;101836.97;5049767;28;20052;-58
2022/01/21 05:04:54;;;;;;;51.38;28.98;;;;;;;2.24;70.86;101835.22;5049662;28;20041;-60
2022/01/21 05:07:24;;;;;;;57.80;30.05;;;;;;;2.27;70.54;101853.31;5049523;28;20090;-59
2022/01/21 05:09:51;;;;;;;54.42;29.10;;;;;;;2.23;70.80;101852.47;5049532;28;20463;-61
2022/01/21 05:12:20;;;;;;;48.30;29.40;;;;;;;2.22;70.89;101848.19;5044607;28;20053;-59
2022/01/21 05:17:24;;;;;;;57.47;30.25;;;;;;;2.15;70.76;101848.22;5048906;28;20053;-59
2022/01/21 05:19:52;;;;;;;54.40;27.75;;;;;;;2.16;70.68;101840.44;5036987;28;20047;-62
2022/01/21 05:22:19;;;;;;;47.17;29.08;;;;;;;2.11;70.61;101849.94;5049562;28;20044;-60
2022/01/21 05:24:46;;;;;;;51.88;26.70;;;;;;;2.10;70.64;101843.88;5035195;28;20085;-60
2022/01/21 05:27:13;;;;;;;52.97;27.77;;;;;;;2.12;70.55;101857.69;5049433;28;20045;-59
2022/01/21 05:29:40;;;;;;;47.55;28.63;;;;;;;2.07;70.61;101854.28;5043258;28;20045;-60
2022/01/21 05:32:08;;;;;;;48.20;28.08;;;;;;;2.11;70.19;101855.13;5049312;28;20045;-59
2022/01/21 05:34:34;;;;;;;47.28;28.65;;;;;;;2.09;70.36;101862.03;5049266;28;20460;-60
2022/01/21 05:37:06;;;;;;;44.30;27.50;;;;;;;2.07;70.44;101874.97;5048357;28;20041;-58
2022/01/21 05:39:33;;;;;;;46.78;28.25;;;;;;;2.01;70.58;101872.41;5047729;28;20413;-59
2022/01/21 05:42:02;;;;;;;51.35;28.40;;;;;;;2.00;70.23;101875.00;5036212;28;20400;-59
2022/01/21 05:46:57;;;;;;;49.80;27.75;;;;;;;1.95;70.38;101893.97;5023144;28;20047;-59
2022/01/21 05:49:26;;;;;;;47.53;28.75;;;;;;;1.96;70.53;101900.03;5048960;28;20139;-59
2022/01/21 05:52:01;;;;;;;49.15;27.02;;;;;;;1.94;70.13;101900.03;5048986;28;20045;-61
2022/01/21 05:54:28;;;;;;;49.13;26.83;;;;;;;1.90;70.37;101900.03;5048971;28;20057;-59
2022/01/21 05:56:55;;;;;;;45.47;27.23;;;;;;;1.81;70.42;101897.47;5048538;28;20049;-59
2022/01/21 05:59:22;;;;;;;46.28;28.02;;;;;;;1.87;70.21;101900.06;5048775;28;20056;-59
2022/01/21 06:01:50;;;;;;;52.00;29.05;;;;;;;1.89;69.97;101906.06;5048362;28;20049;-60
2022/01/21 06:04:17;;;;;;;56.03;27.58;;;;;;;1.90;70.16;101916.41;5040085;28;20050;-59
2022/01/21 06:06:44;;;;;;;46.40;25.95;;;;;;;1.90;69.95;101915.56;5043869;28;20102;-59
2022/01/21 06:09:10;;;;;;;51.35;28.05;;;;;;;1.93;69.78;101913.84;5048815;28;20048;-61
2022/01/21 06:11:37;;;;;;;47.53;28.13;;;;;;;1.93;69.69;101924.19;5048400;28;20529;-63
2022/01/21 06:14:04;;;;;;;48.42;27.08;;;;;;;1.99;69.76;101931.06;5042956;28;20099;-59
2022/01/21 06:16:34;;;;;;;53.05;26.63;;;;;;;1.95;69.81;101934.53;5029482;28;20056;-60
2022/01/21 06:19:01;;;;;;;42.40;26.20;;;;;;;1.94;69.91;101938.00;5028615;28;20411;-64
2022/01/21 06:21:27;;;;;;;36.28;23.52;;;;;;;1.91;69.72;101946.63;5046001;28;20045;-60
2022/01/21 06:23:54;;;;;;;45.13;25.58;;;;;;;1.87;70.01;101950.09;5048554;28;20559;-60
2022/01/21 06:26:20;;;;;;;42.42;25.60;;;;;;;1.89;69.69;101952.66;5048368;28;20052;-61
2022/01/21 06:28:47;;;;;;;41.88;25.00;;;;;;;1.87;69.73;101968.19;5048309;28;20053;-66
2022/01/21 06:31:14;;;;;;;49.55;24.88;;;;;;;1.91;69.73;101977.69;5048133;28;20052;-60
2022/01/21 06:33:40;;;;;;;40.08;24.77;;;;;;;1.93;69.37;101973.38;5048413;28;20413;-59
2022/01/21 06:36:07;;;;;;;45.13;24.08;;;;;;;1.87;69.58;101975.97;5044940;28;20502;-60
2022/01/21 06:38:35;;;;;;;49.15;24.52;;;;;;;1.86;69.76;101981.16;5048566;28;20447;-60
2022/01/21 06:41:02;;;;;;;50.78;24.45;;;;;;;1.85;69.65;101982.00;5048174;28;20497;-63
2022/01/21 06:43:29;;;;;;;48.20;24.35;;;;;;;1.87;69.61;101988.06;5048278;28;20052;-60
2022/01/21 06:45:56;;;;;;;37.67;24.85;;;;;;;1.89;69.50;101984.59;5048463;28;20175;-60
2022/01/21 06:48:25;;;;;;;52.75;24.73;;;;;;;1.89;69.34;101987.19;5043492;28;20042;-59
2022/01/21 06:50:52;;;;;;;42.03;24.45;;;;;;;2.19;69.21;101987.16;5030313;28;20057;-59
2022/01/21 06:53:18;;;;;;;45.80;25.05;;;;;;;2.02;69.55;101994.94;5036533;28;20067;-61
2022/01/21 06:55:46;;;;;;;47.90;25.60;;;;;;;1.96;69.53;101993.22;5031433;28;20077;-60
2022/01/21 06:58:12;;;;;;;43.60;26.35;;;;;;;1.92;69.40;102001.88;5032594;28;20095;-61
2022/01/21 07:00:39;;;;;;;51.83;27.17;;;;;;;1.81;69.67;102008.75;5037694;28;20535;-69
2022/01/21 07:03:06;;;;;;;58.53;27.52;;;;;;;1.76;69.78;102019.94;5043771;28;20048;-60
2022/01/21 07:05:33;;;;;;;50.28;26.52;;;;;;;1.78;69.52;102035.50;5038731;28;20056;-61
2022/01/21 07:08:01;;;;;;;42.75;25.88;;;;;;;1.78;69.49;102040.69;5038377;28;20056;-59
2022/01/21 07:10:29;;;;;;;45.92;25.73;;;;;;;1.90;68.85;102050.16;5029272;28;20485;-59
2022/01/21 07:13:02;;;;;;;42.47;25.25;;;;;;;1.92;69.06;102059.66;5044106;28;20049;-71
2022/01/21 07:15:29;;;;;;;43.50;22.50;;;;;;;1.86;69.23;102058.81;5041893;28;20049;-60
2022/01/21 07:17:56;;;;;;;38.33;23.48;;;;;;;1.83;69.23;102061.38;5038920;28;20058;-60
2022/01/21 07:20:22;;;;;;;44.45;23.77;;;;;;;1.82;69.15;102064.84;5031793;28;20051;-59
2022/01/21 07:22:49;;;;;;;40.67;23.67;;;;;;;1.79;69.14;102071.72;5031980;28;20037;-58
2022/01/21 07:25:17;;;;;;;40.85;24.20;;;;;;;1.78;69.19;102071.72;5032009;28;20080;-59
2022/01/21 07:27:48;;;;;;;37.95;23.80;;;;;;;1.83;68.83;102089.84;5032052;28;20049;-59
2022/01/21 07:30:15;;;;;;;46.63;24.80;;;;;;;1.81;68.94;102091.56;5033364;28;20422;-59
2022/01/21 07:32:43;;;;;;;40.63;24.42;;;;;;;1.76;68.94;102083.78;5035516;28;20064;-59
2022/01/21 07:35:11;;;;;;;42.33;24.77;;;;;;;1.79;68.96;102094.13;5030944;28;20041;-60
2022/01/21 07:37:59;;;;;;;43.15;24.90;;;;;;;1.74;68.89;102096.75;5035788;28;20241;-59
2022/01/21 07:40:27;;;;;;;45.15;24.13;;;;;;;1.71;68.82;102101.88;5034525;28;20053;-59
2022/01/21 07:42:53;;;;;;;46.30;24.90;;;;;;;1.77;68.66;102103.66;5038211;28;20041;-59
2022/01/21 07:45:20;;;;;;;40.10;22.85;;;;;;;1.81;68.82;102117.47;5035612;28;20060;-59
2022/01/21 07:47:47;;;;;;;49.25;25.98;;;;;;;1.77;68.63;102122.59;5039286;28;20102;-62
2022/01/21 07:50:14;;;;;;;50.13;24.15;;;;;;;1.79;68.36;102139.03;5037292;28;20050;-58
2022/01/21 07:52:40;;;;;;;45.40;25.42;;;;;;;1.82;68.61;102126.97;5039971;28;20095;-60
2022/01/21 07:55:08;;;;;;;49.55;25.58;;;;;;;1.83;68.56;102136.41;5039687;28;20151;-59
2022/01/21 07:57:34;;;;;;;63.38;37.15;;;;;;;1.82;68.54;102137.31;5037652;28;20048;-61
2022/01/21 08:00:02;;;;;;;82.28;42.58;;;;;;;1.81;68.57;102143.34;5037013;28;20049;-63
2022/01/21 08:02:31;;;;;;;66.47;38.15;;;;;;;1.83;68.58;102139.00;5039961;28;20053;-58
2022/01/21 08:05:01;;;;;;;58.60;31.63;;;;;;;1.92;68.33;102149.41;5043758;28;20049;-59
2022/01/21 08:07:27;;;;;;;45.35;27.80;;;;;;;1.90;68.42;102154.56;5040442;28;20482;-60
2022/01/21 08:09:54;;;;;;;48.05;27.63;;;;;;;2.02;68.12;102153.75;5044937;28;20057;-60
2022/01/21 08:12:21;;;;;;;49.35;27.75;;;;;;;2.00;68.73;102154.59;5031188;28;20406;-60
2022/01/21 08:14:48;;;;;;;45.17;28.65;;;;;;;2.03;68.56;102163.25;5046332;28;20045;-61
2022/01/21 08:17:14;;;;;;;54.83;33.40;;;;;;;2.10;68.26;102166.69;5032361;28;20478;-59
2022/01/21 08:19:41;;;;;;;54.72;34.22;;;;;;;2.08;68.64;102173.59;5030636;28;20045;-60
2022/01/21 08:22:08;;;;;;;61.80;36.67;;;;;;;2.19;68.40;102189.16;5030277;28;20054;-61
2022/01/21 08:24:35;;;;;;;61.25;36.50;;;;;;;2.18;68.32;102187.41;5031771;28;20099;-61
2022/01/21 08:27:02;;;;;;;53.45;31.17;;;;;;;2.03;69.03;102186.53;5030481;28;20045;-60
2022/01/21 08:29:33;;;;;;;55.33;29.98;;;;;;;2.04;69.16;102192.56;5029434;28;20056;-61
2022/01/21 08:32:00;;;;;;;60.78;29.75;;;;;;;2.11;68.71;102191.72;5020296;28;20049;-59
2022/01/21 08:34:26;;;;;;;50.92;29.95;;;;;;;2.11;69.14;102194.31;5032697;28;20135;-59
2022/01/21 08:36:54;;;;;;;59.50;32.78;;;;;;;2.10;69.06;102196.03;5031472;28;20041;-60
2022/01/21 08:39:21;;;;;;;58.38;36.03;;;;;;;2.22;69.07;102202.97;5034297;28;20041;-60
2022/01/21 08:41:47;;;;;;;64.88;36.03;;;;;;;2.27;69.15;102192.59;5032428;28;20088;-59
2022/01/21 08:44:14;;;;;;;62.65;34.63;;;;;;;2.20;69.24;102204.69;5032681;28;20079;-76
2022/01/21 08:46:41;;;;;;;63.75;31.92;;;;;;;2.08;69.20;102204.66;5030643;28;20042;-59
2022/01/21 08:49:27;;;;;;;55.60;30.48;;;;;;;2.23;69.20;102206.41;5035042;28;20080;-60
2022/01/21 08:51:57;;;;;;;50.08;30.40;;;;;;;2.39;68.88;102215.09;5034963;28;20497;-60
2022/01/21 08:54:25;;;;;;;53.95;30.52;;;;;;;2.45;69.25;102225.44;5037486;28;20045;-60
2022/01/21 08:56:54;;;;;;;51.10;28.67;;;;;;;2.40;69.00;102229.75;5036867;28;20041;-60
2022/01/21 08:59:21;;;;;;;59.53;27.98;;;;;;;2.39;69.16;102222.88;5037995;28;20052;-61
2022/01/21 09:01:49;;;;;;;53.45;31.15;;;;;;;2.56;69.30;102225.47;5039157;28;20053;-64
2022/01/21 09:04:17;;;;;;;84.28;48.03;;;;;;;2.49;68.85;102229.78;5037602;28;20132;-58
2022/01/21 09:06:44;;;;;;;123.60;70.97;;;;;;;2.63;69.38;102237.56;5041375;28;20048;-64
2022/01/21 09:09:10;;;;;;;83.97;46.55;;;;;;;2.60;69.27;102234.97;5029817;28;20049;-59
2022/01/21 09:11:37;;;;;;;210.88;99.20;;;;;;;2.76;68.86;102243.63;5042071;28;20049;-60
2022/01/21 09:14:04;;;;;;;172.27;85.55;;;;;;;2.77;68.91;102250.53;5037218;28;20044;-60
2022/01/21 09:16:31;;;;;;;82.40;49.35;;;;;;;2.81;68.89;102257.44;5027117;28;20413;-60
2022/01/21 09:19:01;;;;;;;93.65;50.22;;;;;;;2.84;68.97;102254.84;5029331;28;20077;-60
2022/01/21 09:21:33;;;;;;;72.53;41.65;;;;;;;2.85;69.22;102260.91;5022426;28;20053;-61
2022/01/21 09:24:00;;;;;;;78.97;40.65;;;;;;;2.86;69.05;102260.91;5024855;28;20383;-61
2022/01/21 09:26:27;;;;;;;77.05;45.63;;;;;;;3.04;69.25;102264.34;5026352;28;20041;-60
2022/01/21 09:28:57;;;;;;;80.05;43.80;;;;;;;3.18;68.76;102265.19;5027148;28;20045;-62
2022/01/21 09:31:25;;;;;;;69.80;40.50;;;;;;;3.33;68.46;102271.25;5029751;28;20099;-61
2022/01/21 09:34:12;;;;;;;89.32;47.25;;;;;;;3.34;68.68;102273.84;5034500;28;20071;-61
2022/01/21 09:36:39;;;;;;;74.25;41.85;;;;;;;3.34;68.60;102278.13;5032488;28;20109;-61
2022/01/21 09:39:06;;;;;;;79.38;42.95;;;;;;;3.09;69.19;102283.38;5034159;28;20100;-60
2022/01/21 09:41:33;;;;;;;91.55;44.75;;;;;;;3.01;69.79;102280.78;5035212;28;20071;-63
2022/01/21 09:44:03;;;;;;;76.95;41.63;;;;;;;2.95;70.13;102293.75;5034318;28;20049;-60
2022/01/21 09:46:35;;;;;;;79.85;43.35;;;;;;;3.02;70.15;102292.88;5037612;28;20053;-60
2022/01/21 09:49:20;;;;;;;100.15;47.03;;;;;;;3.24;69.35;102287.69;5036145;28;20049;-60
2022/01/21 09:51:50;;;;;;;295.85;148.65;;;;;;;3.24;69.77;102290.28;5036817;28;20041;-61
2022/01/21 09:54:17;;;;;;;177.48;93.68;;;;;;;3.50;69.21;102282.44;5039087;28;20048;-60
2022/01/21 09:56:45;;;;;;;150.85;78.65;;;;;;;3.50;69.72;102281.59;5031493;28;20421;-67
2022/01/21 09:59:16;;;;;;;230.40;110.43;;;;;;;3.50;69.44;102289.38;5030056;28;20045;-60
2022/01/21 10:01:48;;;;;;;248.88;119.90;;;;;;;3.67;69.45;102287.59;5040152;28;20049;-61
2022/01/21 10:04:16;;;;;;;167.07;77.82;;;;;;;3.74;69.23;102298.81;5034816;28;20132;-61
2022/01/21 10:06:45;;;;;;;165.88;78.47;;;;;;;3.87;69.27;102303.13;5028581;28;20057;-61
2022/01/21 10:09:14;;;;;;;320.27;135.02;;;;;;;3.90;69.45;102292.72;5028267;28;20049;-63
2022/01/21 10:11:47;;;;;;;274.45;117.68;;;;;;;4.02;69.29;102280.56;5028319;28;20491;-63
2022/01/21 10:14:16;;;;;;;192.27;86.13;;;;;;;4.09;69.81;102284.84;5028523;28;20053;-61
2022/01/21 10:16:43;;;;;;;208.10;95.35;;;;;;;4.09;69.18;102285.72;5028664;28;20041;-61
2022/01/21 10:19:11;;;;;;;133.45;68.15;;;;;;;4.30;69.41;102288.22;5030062;28;20053;-61
2022/01/21 10:21:42;;;;;;;123.43;67.38;;;;;;;4.38;69.16;102279.50;5040801;28;20057;-61
2022/01/21 10:24:12;;;;;;;135.45;69.82;;;;;;;4.38;69.40;102286.41;5042922;28;20099;-61
2022/01/21 10:26:55;;;;;;;127.78;66.85;;;;;;;4.53;69.50;102288.06;5048290;28;20087;-62
2022/01/21 10:29:22;;;;;;;101.13;52.15;;;;;;;4.51;69.30;102285.47;5048324;28;20501;-61
2022/01/21 10:31:54;;;;;;;135.55;69.15;;;;;;;4.49;69.84;102275.97;5048389;28;20457;-61
2022/01/21 10:34:34;;;;;;;220.90;108.13;;;;;;;4.50;69.79;102278.56;5048269;28;20091;-68
2022/01/21 10:37:08;;;;;;;130.85;65.70;;;;;;;4.65;69.59;102279.34;5045978;28;20481;-62
2022/01/21 10:40:03;;;;;;;143.48;67.07;;;;;;;5.04;68.85;102275.56;5044160;28;20071;-61
2022/01/21 10:42:30;;;;;;;113.70;54.83;;;;;;;5.35;68.34;102269.19;5048106;28;20044;-61
2022/01/21 10:44:58;;;;;;;112.28;56.42;;;;;;;5.40;68.13;102265.66;5048307;28;20044;-61
2022/01/21 10:47:27;;;;;;;119.53;56.92;;;;;;;5.18;69.21;102265.03;5048517;28;20041;-61
2022/01/21 10:49:59;;;;;;;96.00;50.40;;;;;;;5.19;69.44;102271.06;5048051;28;20099;-62
2022/01/21 10:52:31;;;;;;;98.82;55.05;;;;;;;5.26;69.19;102269.28;5048563;28;20049;-64
2022/01/21 10:54:58;;;;;;;106.93;58.58;;;;;;;5.49;68.77;102269.06;5036987;28;20061;-62
2022/01/21 10:57:27;;;;;;;90.60;49.30;;;;;;;6.00;67.62;102265.88;5027997;28;20485;-61
2022/01/21 11:00:02;;;;;;;89.75;48.13;;;;;;;5.75;68.62;102271.34;5027997;28;20045;-61
2022/01/21 11:02:40;;;;;;;90.00;47.63;;;;;;;5.96;68.49;102266.78;5028187;28;20576;-61
2022/01/21 11:05:15;;;;;;;91.70;48.28;;;;;;;6.08;68.05;102271.84;5028086;28;20057;-62
2022/01/21 11:07:44;;;;;;;86.55;46.65;;;;;;;6.31;67.81;102278.50;5028188;28;20050;-63
2022/01/21 11:10:33;;;;;;;101.55;57.97;;;;;;;6.77;66.56;102270.00;5026864;28;20646;-62
2022/01/21 11:13:22;;;;;;;87.47;47.92;;;;;;;6.71;66.88;102267.47;5027987;28;20057;-61
2022/01/21 11:15:54;;;;;;;93.53;49.22;;;;;;;6.76;66.96;102270.03;5028072;28;20048;-61
2022/01/21 11:19:06;;;;;;;89.57;47.15;;;;;;;7.18;66.06;102267.56;5028189;28;20050;-61
2022/01/21 11:21:46;;;;;;;85.90;45.83;;;;;;;7.41;65.37;102268.91;5035265;28;20055;-62
2022/01/21 11:24:15;;;;;;;93.15;51.97;;;;;;;7.51;65.17;102257.38;5047856;28;20053;-63
2022/01/21 11:26:43;;;;;;;105.97;57.95;;;;;;;7.62;64.96;102244.13;5034901;28;20425;-61
2022/01/21 11:29:11;;;;;;;90.85;50.90;;;;;;;7.72;64.95;102240.44;5047866;28;20084;-61
2022/01/21 11:31:38;;;;;;;107.20;57.05;;;;;;;7.63;65.06;102238.88;5048045;28;20053;-62
2022/01/21 11:34:08;;;;;;;105.80;53.58;;;;;;;7.37;65.94;102239.38;5047822;28;20055;-61
2022/01/21 11:36:35;;;;;;;94.63;51.47;;;;;;;7.47;65.85;102240.91;5050542;28;20041;-62
2022/01/21 11:39:02;;;;;;;116.63;58.90;;;;;;;7.34;66.23;102242.06;5051646;28;20045;-61
2022/01/21 11:41:30;;;;;;;102.60;54.55;;;;;;;7.59;65.69;102237.22;5051106;28;20562;-61
2022/01/21 11:44:01;;;;;;;117.38;58.90;;;;;;;7.73;65.52;102233.44;5032056;28;20512;-62
2022/01/21 11:49:09;;;;;;;104.57;54.85;;;;;;;7.88;65.27;102224.44;5031007;28;20049;-61
2022/01/21 11:51:40;;;;;;;103.63;56.50;;;;;;;8.01;64.80;102203.22;5031140;28;20092;-62
2022/01/21 11:54:13;;;;;;;323.60;175.93;;;;;;;8.15;64.63;102210.75;5030838;28;20493;-62
2022/01/21 11:56:59;;;;;;;106.93;56.45;;;;;;;8.22;64.45;102210.63;5031183;28;20422;-61
2022/01/21 12:02:14;;;;;;;104.15;55.55;;;;;;;8.26;64.33;102213.09;5029824;28;19928;-62
2022/01/21 12:04:44;;;;;;;113.97;63.85;;;;;;;8.37;64.23;102212.88;5023627;28;20054;-62
2022/01/21 12:07:34;;;;;;;104.35;56.33;;;;;;;8.41;64.14;102204.03;5030908;28;20045;-61
2022/01/21 12:10:02;;;;;;;91.57;50.28;;;;;;;8.57;63.84;102204.56;5024813;28;20127;-62
2022/01/21 12:12:44;;;;;;;112.38;63.30;;;;;;;8.66;63.57;102201.72;5030461;28;20070;-61
2022/01/21 12:16:17;;;;;;;127.97;77.20;;;;;;;8.71;63.38;102201.63;5030686;28;20111;-66
2022/01/21 12:19:20;;;;;;;123.90;67.50;;;;;;;8.79;63.28;102204.03;5025462;28;20069;-62
2022/01/21 12:21:48;;;;;;;30.20;18.92;;;;;;;9.72;61.73;102204.13;5039880;28;20045;-59
2022/01/21 12:24:16;;;;;;;49.00;28.30;;;;;;;10.33;61.29;102198.75;5037484;28;20046;-60
2022/01/21 12:26:59;;;;;;;137.63;68.03;;;;;;;10.53;60.63;102198.13;5037130;28;20052;-62
2022/01/21 12:29:27;;;;;;;127.57;63.08;;;;;;;10.08;61.90;102190.78;5041313;28;20045;-65
2022/01/21 12:32:08;;;;;;;107.18;58.35;;;;;;;9.84;62.42;102184.53;5029559;28;20437;-59